createdAt,value
2022-08-20T00:02:24.871Z,28.33
2022-08-20T00:05:41.171Z,25.30
2022-08-20T00:08:43.489Z,26.17
2022-08-20T00:11:44.531Z,24.77
2022-08-20T00:14:45.967Z,25.85
2022-08-20T00:17:47.960Z,23.67
2022-08-20T00:20:53.686Z,24.65
2022-08-20T00:23:56.903Z,26.58
2022-08-20T00:26:57.555Z,26.55
2022-08-20T00:29:59.214Z,26.70
2022-08-20T00:33:16.918Z,27.27
2022-08-20T00:36:19.054Z,25.35
2022-08-20T00:39:19.990Z,24.77
2022-08-20T00:42:20.935Z,28.90
2022-08-20T00:45:22.239Z,28.08
2022-08-20T00:48:32.989Z,29.85
2022-08-20T00:51:41.685Z,29.83
2022-08-20T00:54:59.221Z,28.73
2022-08-20T00:58:09.150Z,28.02
2022-08-20T01:01:10.856Z,30.45
2022-08-20T01:04:11.744Z,31.75
2022-08-20T01:07:13.084Z,29.20
2022-08-20T01:10:27.862Z,36.97
2022-08-20T01:13:29.222Z,32.75
2022-08-20T01:16:32.186Z,34.75
2022-08-20T01:19:51.782Z,35.03
2022-08-20T01:23:32.755Z,36.88
2022-08-20T01:26:45.217Z,36.70
2022-08-20T01:29:47.124Z,28.95
2022-08-20T01:32:48.054Z,35.05
2022-08-20T01:35:50.610Z,35.20
2022-08-20T01:38:53.940Z,34.55
2022-08-20T01:42:17.572Z,35.60
2022-08-20T01:45:19.081Z,31.15
2022-08-20T01:48:21.052Z,34.15
2022-08-20T01:51:28.609Z,35.53
2022-08-20T01:57:30.809Z,31.17
2022-08-20T02:00:32.762Z,31.58
2022-08-20T02:03:38.776Z,31.08
2022-08-20T02:06:56.170Z,33.45
2022-08-20T02:10:00.330Z,31.85
2022-08-20T02:13:02.080Z,31.25
2022-08-20T02:16:04.223Z,33.20
2022-08-20T02:19:15.359Z,32.33
2022-08-20T02:22:29.605Z,32.33
2022-08-20T02:25:34.900Z,34.72
2022-08-20T02:28:35.746Z,28.90
2022-08-20T02:31:37.414Z,28.40
2022-08-20T02:34:58.352Z,30.02
2022-08-20T02:37:59.642Z,27.05
2022-08-20T02:41:01.684Z,28.45
2022-08-20T02:44:03.198Z,28.00
2022-08-20T02:47:05.867Z,28.58
2022-08-20T02:50:11.478Z,26.40
2022-08-20T02:53:12.443Z,25.67
2022-08-20T02:56:14.221Z,27.13
2022-08-20T02:59:19.031Z,25.83
2022-08-20T03:02:21.776Z,28.65
2022-08-20T03:05:23.051Z,28.65
2022-08-20T03:08:27.278Z,26.67
2022-08-20T03:11:28.234Z,27.13
2022-08-20T03:14:29.612Z,28.67
2022-08-20T03:17:30.804Z,33.35
2022-08-20T03:20:31.658Z,29.80
2022-08-20T03:23:35.593Z,31.00
2022-08-20T03:26:41.748Z,33.10
2022-08-20T03:29:43.031Z,32.65
2022-08-20T03:32:44.305Z,34.25
2022-08-20T03:35:45.472Z,36.53
2022-08-20T03:38:46.608Z,40.60
2022-08-20T03:41:48.521Z,37.05
2022-08-20T03:44:59.252Z,37.88
2022-08-20T03:48:01.866Z,47.38
2022-08-20T03:51:03.749Z,46.60
2022-08-20T03:54:04.628Z,45.60
2022-08-20T03:57:12.756Z,52.42
2022-08-20T04:00:20.802Z,47.88
2022-08-20T04:03:23.661Z,50.10
2022-08-20T04:06:25.624Z,55.42
2022-08-20T04:09:26.397Z,53.45
2022-08-20T04:12:27.631Z,53.08
2022-08-20T04:15:28.703Z,52.65
2022-08-20T04:18:29.921Z,47.25
2022-08-20T04:21:36.235Z,59.42
2022-08-20T04:24:37.425Z,57.15
2022-08-20T04:27:40.620Z,54.08
2022-08-20T04:30:44.652Z,57.95
2022-08-20T04:33:52.982Z,58.17
2022-08-20T04:36:54.180Z,58.50
2022-08-20T04:40:13.771Z,58.38
2022-08-20T04:43:16.014Z,55.97
2022-08-20T04:46:17.217Z,62.28
2022-08-20T04:49:18.186Z,58.42
2022-08-20T04:52:19.026Z,59.75
2022-08-20T04:55:20.367Z,59.33
2022-08-20T04:58:27.562Z,59.72
2022-08-20T05:04:30.942Z,54.72
2022-08-20T05:07:31.582Z,52.35
2022-08-20T05:10:32.507Z,50.25
2022-08-20T05:13:33.583Z,49.03
2022-08-20T05:16:40.814Z,47.10
2022-08-20T05:19:42.811Z,46.22
2022-08-20T05:22:44.773Z,43.63
2022-08-20T05:25:51.618Z,37.38
2022-08-20T05:28:58.500Z,35.13
2022-08-20T05:32:00.168Z,36.15
2022-08-20T05:35:03.743Z,31.65
2022-08-20T05:38:07.628Z,31.25
2022-08-20T05:41:08.570Z,36.25
2022-08-20T05:44:13.618Z,30.33
2022-08-20T05:47:14.850Z,33.50
2022-08-20T05:50:20.741Z,34.95
2022-08-20T05:53:25.806Z,35.08
2022-08-20T05:56:30.995Z,33.30
2022-08-20T05:59:34.759Z,30.20
2022-08-20T06:02:54.426Z,34.78
2022-08-20T06:05:55.368Z,28.67
2022-08-20T06:08:56.749Z,36.05
2022-08-20T06:11:59.713Z,29.60
2022-08-20T06:15:00.995Z,29.35
2022-08-20T06:18:12.997Z,29.92
2022-08-20T06:21:27.546Z,31.85
2022-08-20T06:24:28.876Z,28.80
2022-08-20T06:27:30.032Z,33.30
2022-08-20T06:30:32.577Z,26.10
2022-08-20T06:33:33.583Z,30.20
2022-08-20T06:36:34.741Z,32.78
2022-08-20T06:39:35.829Z,28.48
2022-08-20T06:42:45.747Z,28.60
2022-08-20T06:45:49.268Z,25.38
2022-08-20T06:48:51.566Z,25.45
2022-08-20T06:51:52.815Z,22.35
2022-08-20T06:54:54.100Z,23.40
2022-08-20T06:58:07.354Z,22.02
2022-08-20T07:01:28.637Z,25.23
2022-08-20T07:04:29.844Z,26.13
2022-08-20T07:07:31.438Z,21.40
2022-08-20T07:10:32.758Z,22.10
2022-08-20T07:13:34.497Z,23.60
2022-08-20T07:16:35.733Z,21.90
2022-08-20T07:19:37.614Z,21.92
2022-08-20T07:22:38.848Z,20.95
2022-08-20T07:25:44.733Z,18.10
2022-08-20T07:28:46.545Z,19.02
2022-08-20T07:32:06.145Z,16.17
2022-08-20T07:35:15.555Z,16.25
2022-08-20T07:38:24.827Z,15.35
2022-08-20T07:41:26.133Z,14.88
2022-08-20T07:44:30.885Z,15.90
2022-08-20T07:47:36.273Z,14.80
2022-08-20T07:50:37.911Z,15.05
2022-08-20T07:53:40.957Z,16.17
2022-08-20T07:56:41.992Z,16.45
2022-08-20T07:59:43.111Z,16.38
2022-08-20T08:02:45.727Z,15.70
2022-08-20T08:05:52.006Z,18.55
2022-08-20T08:08:54.121Z,13.75
2022-08-20T08:11:57.741Z,15.48
2022-08-20T08:14:58.970Z,15.40
2022-08-20T08:18:10.928Z,15.60
2022-08-20T08:21:13.400Z,15.57
2022-08-20T08:24:19.912Z,12.55
2022-08-20T08:27:22.746Z,13.45
2022-08-20T08:30:24.090Z,12.48
2022-08-20T08:33:33.699Z,10.43
2022-08-20T08:36:34.773Z,11.68
2022-08-20T08:39:35.684Z,10.20
2022-08-20T08:42:55.862Z,11.20
2022-08-20T08:46:11.683Z,11.30
2022-08-20T08:49:23.299Z,12.73
2022-08-20T08:52:34.068Z,9.00
2022-08-20T08:55:35.112Z,6.88
2022-08-20T08:58:36.999Z,6.38
2022-08-20T09:01:55.653Z,7.65
2022-08-20T09:05:02.072Z,6.07
2022-08-20T09:08:16.374Z,10.10
2022-08-20T09:11:23.408Z,5.90
2022-08-20T09:14:27.240Z,5.00
2022-08-20T09:17:28.226Z,5.95
2022-08-20T09:20:31.220Z,6.53
2022-08-20T09:23:32.317Z,7.43
2022-08-20T09:26:35.319Z,6.63
2022-08-20T09:29:39.248Z,5.85
2022-08-20T09:32:41.363Z,5.53
2022-08-20T09:35:42.376Z,4.85
2022-08-20T09:38:43.789Z,5.05
2022-08-20T09:41:44.470Z,5.47
2022-08-20T09:44:46.535Z,4.50
2022-08-20T09:47:56.972Z,4.55
2022-08-20T09:50:58.670Z,5.00
2022-08-20T09:54:00.140Z,4.70
2022-08-20T09:57:07.174Z,4.50
2022-08-20T10:00:10.379Z,5.20
2022-08-20T10:03:15.069Z,4.33
2022-08-20T10:06:19.971Z,4.00
2022-08-20T10:09:20.914Z,3.45
2022-08-20T10:12:21.987Z,3.88
2022-08-20T10:15:23.194Z,3.90
2022-08-20T10:18:24.053Z,3.53
2022-08-20T10:21:24.956Z,4.00
2022-08-20T10:24:27.754Z,3.97
2022-08-20T10:27:29.031Z,3.30
2022-08-20T10:30:29.844Z,3.50
2022-08-20T10:33:31.026Z,3.90
2022-08-20T10:36:32.176Z,5.35
2022-08-20T10:39:33.052Z,3.72
2022-08-20T10:42:36.176Z,3.97
2022-08-20T10:45:39.056Z,8.80
2022-08-20T10:48:41.201Z,5.22
2022-08-20T10:51:42.170Z,3.67
2022-08-20T10:54:43.869Z,3.03
2022-08-20T10:57:45.852Z,4.25
2022-08-20T11:00:47.421Z,3.50
2022-08-20T11:03:48.398Z,3.03
2022-08-20T11:06:49.296Z,3.80
2022-08-20T11:09:51.041Z,3.45
2022-08-20T11:12:51.892Z,2.90
2022-08-20T11:15:52.995Z,2.42
2022-08-20T11:18:53.936Z,2.60
2022-08-20T11:21:55.581Z,6.80
2022-08-20T11:24:56.855Z,2.35
2022-08-20T11:27:58.587Z,1.75
2022-08-20T11:31:01.955Z,3.10
2022-08-20T11:34:03.242Z,2.17
2022-08-20T11:37:04.161Z,1.95
2022-08-20T11:40:05.886Z,2.25
2022-08-20T11:43:15.593Z,2.70
2022-08-20T11:46:17.228Z,2.13
2022-08-20T11:49:18.606Z,3.40
2022-08-20T11:52:19.616Z,3.47
2022-08-20T11:55:20.674Z,2.70
2022-08-20T11:58:30.236Z,2.42
2022-08-20T12:01:31.565Z,4.35
2022-08-20T12:04:33.885Z,2.50
2022-08-20T12:07:36.530Z,2.97
2022-08-20T12:10:39.171Z,3.08
2022-08-20T12:13:47.750Z,3.47
2022-08-20T12:16:49.845Z,2.50
2022-08-20T12:19:53.744Z,2.13
2022-08-20T12:22:54.737Z,3.10
2022-08-20T12:25:55.633Z,2.63
2022-08-20T12:29:00.615Z,2.58
2022-08-20T12:32:01.401Z,2.55
2022-08-20T12:35:04.542Z,3.58
2022-08-20T12:38:07.043Z,2.20
2022-08-20T12:41:07.996Z,2.78
2022-08-20T12:44:12.685Z,2.78
2022-08-20T12:47:17.139Z,2.30
2022-08-20T12:50:23.220Z,2.45
2022-08-20T12:53:24.147Z,1.70
2022-08-20T12:56:25.295Z,2.58
2022-08-20T12:59:26.761Z,2.05
2022-08-20T13:02:28.142Z,2.50
2022-08-20T13:05:31.208Z,2.03
2022-08-20T13:08:32.046Z,2.40
2022-08-20T13:11:33.599Z,2.10
2022-08-20T13:14:36.053Z,2.10
2022-08-20T13:17:39.173Z,1.92
2022-08-20T13:20:40.737Z,1.90
2022-08-20T13:23:41.630Z,2.28
2022-08-20T13:26:42.892Z,2.05
2022-08-20T13:29:49.665Z,2.67
2022-08-20T13:35:51.784Z,2.08
2022-08-20T13:38:53.134Z,2.28
2022-08-20T13:41:53.885Z,2.63
2022-08-20T13:44:55.469Z,2.20
2022-08-20T13:47:56.708Z,4.25
2022-08-20T13:50:57.822Z,2.97
2022-08-20T13:53:59.053Z,2.08
2022-08-20T13:57:09.946Z,2.13
2022-08-20T14:00:17.545Z,2.63
2022-08-20T14:03:20.136Z,2.30
2022-08-20T14:06:27.880Z,2.50
2022-08-20T14:09:30.273Z,2.53
2022-08-20T14:12:31.383Z,2.65
2022-08-20T14:15:34.768Z,2.97
2022-08-20T14:18:35.786Z,2.95
2022-08-20T14:21:36.568Z,2.80
2022-08-20T14:24:37.467Z,2.72
2022-08-20T14:27:39.302Z,3.08
2022-08-20T14:30:41.495Z,3.28
2022-08-20T14:33:44.789Z,2.80
2022-08-20T14:36:45.920Z,2.90
2022-08-20T14:39:57.062Z,2.78
2022-08-20T14:45:59.730Z,2.38
2022-08-20T14:49:00.351Z,4.25
2022-08-20T14:52:01.536Z,3.72
2022-08-20T14:55:05.199Z,2.05
2022-08-20T14:58:13.772Z,1.90
2022-08-20T15:01:14.754Z,2.03
2022-08-20T15:04:16.367Z,2.13
2022-08-20T15:07:33.702Z,2.00
2022-08-20T15:10:34.748Z,2.15
2022-08-20T15:13:35.825Z,1.90
2022-08-20T15:16:37.438Z,2.17
2022-08-20T15:19:38.414Z,2.17
2022-08-20T15:22:41.732Z,2.45
2022-08-20T15:25:42.802Z,2.08
2022-08-20T15:28:44.041Z,1.92
2022-08-20T15:31:45.234Z,2.50
2022-08-20T15:34:49.584Z,2.63
2022-08-20T15:37:51.693Z,2.63
2022-08-20T15:40:56.128Z,4.03
2022-08-20T15:43:58.348Z,2.40
2022-08-20T15:47:26.492Z,2.78
2022-08-20T15:50:38.546Z,2.97
2022-08-20T15:53:57.283Z,2.75
2022-08-20T15:57:46.192Z,2.10
2022-08-20T16:01:24.387Z,2.20
2022-08-20T16:04:57.909Z,2.13
2022-08-20T16:08:30.894Z,2.72
2022-08-20T16:12:04.936Z,2.40
2022-08-20T16:15:19.018Z,2.10
2022-08-20T16:18:26.134Z,2.30
2022-08-20T16:24:33.355Z,2.27
2022-08-20T16:27:49.559Z,1.55
2022-08-20T16:31:02.783Z,1.90
2022-08-20T16:34:47.718Z,2.00
2022-08-20T16:38:13.769Z,1.85
2022-08-20T16:41:39.032Z,1.98
2022-08-20T16:44:48.824Z,2.65
2022-08-20T16:47:51.755Z,1.60
2022-08-20T16:51:07.302Z,1.88
2022-08-20T16:54:10.281Z,1.52
2022-08-20T16:57:17.049Z,1.70
2022-08-20T17:03:50.866Z,1.90
2022-08-20T17:06:52.986Z,1.73
2022-08-20T17:10:12.823Z,1.85
2022-08-20T17:13:13.780Z,1.63
2022-08-20T17:16:14.896Z,1.88
2022-08-20T17:19:32.599Z,1.58
2022-08-20T17:22:47.978Z,1.48
2022-08-20T17:26:02.112Z,1.73
2022-08-20T17:29:19.199Z,1.80
2022-08-20T17:38:40.993Z,1.30
2022-08-20T17:41:59.842Z,1.60
2022-08-20T17:45:16.244Z,1.75
2022-08-20T17:48:26.612Z,1.93
2022-08-20T17:51:42.676Z,1.63
2022-08-20T17:54:48.270Z,1.80
2022-08-20T17:57:57.940Z,2.05
2022-08-20T18:01:00.118Z,2.08
2022-08-20T18:04:01.555Z,1.85
2022-08-20T18:07:17.191Z,2.20
2022-08-20T18:10:26.365Z,1.70
2022-08-20T18:14:26.296Z,1.63
2022-08-20T18:18:01.277Z,1.70
2022-08-20T18:21:33.064Z,1.65
2022-08-20T18:25:15.374Z,1.75
2022-08-20T18:28:35.181Z,1.92
2022-08-20T18:32:23.311Z,2.28
2022-08-20T18:35:45.553Z,1.70
2022-08-20T18:39:23.629Z,1.73
2022-08-20T18:42:35.041Z,1.73
2022-08-20T18:45:37.221Z,2.90
2022-08-20T18:48:49.454Z,2.10
2022-08-20T18:51:51.082Z,2.17
2022-08-20T18:55:00.599Z,2.13
2022-08-20T18:58:08.102Z,2.28
2022-08-20T19:01:14.219Z,2.10
2022-08-20T19:04:30.264Z,2.45
2022-08-20T19:07:50.608Z,1.90
2022-08-20T19:11:24.582Z,2.13
2022-08-20T19:14:46.357Z,2.60
2022-08-20T19:18:09.956Z,2.10
2022-08-20T19:21:15.812Z,2.35
2022-08-20T19:24:26.048Z,2.83
2022-08-20T19:27:29.575Z,2.15
2022-08-20T19:30:43.555Z,2.95
2022-08-20T19:33:47.029Z,3.05
2022-08-20T19:37:09.141Z,2.97
2022-08-20T19:40:38.944Z,3.92
2022-08-20T19:43:45.458Z,3.40
2022-08-20T19:46:48.723Z,3.42
2022-08-20T19:50:17.943Z,3.05
2022-08-20T19:53:32.162Z,3.30
2022-08-20T19:56:41.473Z,2.88
2022-08-20T20:00:13.015Z,4.75
2022-08-20T20:03:32.128Z,3.50
2022-08-20T20:06:43.516Z,2.17
2022-08-20T20:09:46.553Z,2.95
2022-08-20T20:12:48.590Z,2.88
2022-08-20T20:15:55.909Z,2.90
2022-08-20T20:19:15.988Z,3.92
2022-08-20T20:22:47.204Z,4.38
2022-08-20T20:25:57.908Z,3.58
2022-08-20T20:29:28.147Z,4.38
2022-08-20T20:32:30.570Z,3.72
2022-08-20T20:35:36.915Z,3.70
2022-08-20T20:38:56.136Z,3.60
2022-08-20T20:42:01.257Z,3.50
2022-08-20T20:45:15.522Z,3.30
2022-08-20T20:48:27.390Z,3.22
2022-08-20T20:51:51.869Z,4.10
2022-08-20T20:55:09.364Z,3.53
2022-08-20T20:58:10.262Z,4.20
2022-08-20T21:01:11.586Z,3.85
2022-08-20T21:04:12.765Z,3.92
2022-08-20T21:07:21.271Z,4.03
2022-08-20T21:10:27.658Z,4.30
2022-08-20T21:13:28.736Z,4.13
2022-08-20T21:16:30.272Z,4.07
2022-08-20T21:19:32.508Z,3.90
2022-08-20T21:22:33.428Z,6.38
2022-08-20T21:25:35.661Z,4.65
2022-08-20T21:28:36.782Z,4.57
2022-08-20T21:31:44.077Z,4.90
2022-08-20T21:34:46.658Z,4.25
2022-08-20T21:37:47.968Z,5.25
2022-08-20T21:40:49.048Z,4.30
2022-08-20T21:43:49.762Z,5.32
2022-08-20T21:46:53.213Z,5.47
2022-08-20T21:49:54.682Z,4.68
2022-08-20T21:52:59.488Z,5.25
2022-08-20T21:56:02.077Z,4.97
2022-08-20T21:59:04.551Z,5.18
2022-08-20T22:02:06.597Z,4.45
2022-08-20T22:05:08.296Z,5.35
2022-08-20T22:08:10.328Z,6.05
2022-08-20T22:11:12.288Z,8.18
2022-08-20T22:14:15.767Z,9.63
2022-08-20T22:17:17.176Z,6.88
2022-08-20T22:20:18.028Z,7.93
2022-08-20T22:23:19.087Z,10.82
2022-08-20T22:26:21.503Z,5.65
2022-08-20T22:29:25.929Z,7.40
2022-08-20T22:32:33.407Z,9.65
2022-08-20T22:35:46.729Z,8.35
2022-08-20T22:38:47.755Z,7.07
2022-08-20T22:41:56.350Z,6.03
2022-08-20T22:44:57.194Z,5.00
2022-08-20T22:47:59.712Z,6.30
2022-08-20T22:51:01.892Z,6.57
2022-08-20T22:54:07.406Z,7.40
2022-08-20T22:57:08.790Z,9.18
2022-08-20T23:00:15.195Z,7.43
2022-08-20T23:03:29.238Z,10.60
2022-08-20T23:06:40.036Z,10.32
2022-08-20T23:09:43.252Z,11.10
2022-08-20T23:12:44.831Z,8.82
2022-08-20T23:15:45.807Z,8.82
2022-08-20T23:18:46.700Z,8.18
2022-08-20T23:21:51.802Z,7.93
2022-08-20T23:24:53.992Z,8.45
2022-08-20T23:28:04.125Z,7.47
2022-08-20T23:31:05.528Z,7.65
2022-08-20T23:34:06.354Z,7.05
2022-08-20T23:37:08.365Z,7.78
2022-08-20T23:40:11.629Z,8.05
2022-08-20T23:43:13.081Z,9.05
2022-08-20T23:46:14.116Z,9.98
2022-08-20T23:49:15.720Z,7.40
2022-08-20T23:52:18.356Z,9.40
2022-08-20T23:55:21.144Z,7.70
2022-08-20T23:58:22.594Z,7.93
